<?xml version="1.0" encoding="UTF-8" standalone="no" ?>
<gpx xmlns="http://www.topografix.com/GPX/1/1" xmlns:xsi="http://www.w3.org/2001/XMLSchema-instance" xsi:schemaLocation="http://www.topografix.com/GPX/1/1 http://www.topografix.com/GPX/1/1/gpx.xsd" version="1.1" creator="VisuGPX - https://www.visugpx.com">
  <metadata>
    <name>Rando nordique Animation</name>
    <desc><![CDATA[Rando Nordique autour des Gorges de Franchard, Ermitage, cuisinière, Isatis et retour]]></desc>
  </metadata>
  <trk>
    <name><![CDATA[14 févr. 2015 09:50:18]]></name>
    <cmt><![CDATA[14 févr. 2015 09:50:18]]></cmt>
    <trkseg>
      <trkpt lat="48.40877" lon="2.63496">
        <ele>128</ele>
        <time>2015-02-14T08:50:19Z</time>
      </trkpt>
      <trkpt lat="48.40881" lon="2.6349">
        <ele>131</ele>
        <time>2015-02-14T08:50:21Z</time>
      </trkpt>
      <trkpt lat="48.4089" lon="2.6347">
        <ele>132</ele>
        <time>2015-02-14T08:50:22Z</time>
      </trkpt>
      <trkpt lat="48.40886" lon="2.63471">
        <ele>135</ele>
        <time>2015-02-14T08:50:53Z</time>
      </trkpt>
      <trkpt lat="48.40887" lon="2.63479">
        <ele>135</ele>
        <time>2015-02-14T08:51:03Z</time>
      </trkpt>
      <trkpt lat="48.40889" lon="2.63474">
        <ele>134</ele>
        <time>2015-02-14T08:52:34Z</time>
      </trkpt>
      <trkpt lat="48.40894" lon="2.63473">
        <ele>134</ele>
        <time>2015-02-14T08:52:39Z</time>
      </trkpt>
      <trkpt lat="48.40903" lon="2.63473">
        <ele>133</ele>
        <time>2015-02-14T08:52:48Z</time>
      </trkpt>
      <trkpt lat="48.40903" lon="2.63464">
        <ele>133</ele>
        <time>2015-02-14T08:52:53Z</time>
      </trkpt>
      <trkpt lat="48.40902" lon="2.63456">
        <ele>132</ele>
        <time>2015-02-14T08:52:56Z</time>
      </trkpt>
      <trkpt lat="48.40899" lon="2.63451">
        <ele>132</ele>
        <time>2015-02-14T08:52:58Z</time>
      </trkpt>
      <trkpt lat="48.40895" lon="2.63442">
        <ele>133</ele>
        <time>2015-02-14T08:53:00Z</time>
      </trkpt>
      <trkpt lat="48.40899" lon="2.63442">
        <ele>133</ele>
        <time>2015-02-14T08:53:23Z</time>
      </trkpt>
      <trkpt lat="48.40899" lon="2.63437">
        <ele>134</ele>
        <time>2015-02-14T08:54:13Z</time>
      </trkpt>
      <trkpt lat="48.40902" lon="2.63436">
        <ele>135</ele>
        <time>2015-02-14T08:55:07Z</time>
      </trkpt>
      <trkpt lat="48.40904" lon="2.6344">
        <ele>134</ele>
        <time>2015-02-14T08:55:15Z</time>
      </trkpt>
      <trkpt lat="48.40902" lon="2.63438">
        <ele>134</ele>
        <time>2015-02-14T08:56:36Z</time>
      </trkpt>
      <trkpt lat="48.40896" lon="2.63424">
        <ele>134</ele>
        <time>2015-02-14T08:56:45Z</time>
      </trkpt>
      <trkpt lat="48.40891" lon="2.63406">
        <ele>133</ele>
        <time>2015-02-14T08:56:55Z</time>
      </trkpt>
      <trkpt lat="48.40882" lon="2.63396">
        <ele>133</ele>
        <time>2015-02-14T08:57:01Z</time>
      </trkpt>
      <trkpt lat="48.40882" lon="2.63389">
        <ele>133</ele>
        <time>2015-02-14T08:57:04Z</time>
      </trkpt>
      <trkpt lat="48.40888" lon="2.63377">
        <ele>133</ele>
        <time>2015-02-14T08:57:11Z</time>
      </trkpt>
      <trkpt lat="48.40892" lon="2.63372">
        <ele>134</ele>
        <time>2015-02-14T08:57:14Z</time>
      </trkpt>
      <trkpt lat="48.40901" lon="2.63371">
        <ele>134</ele>
        <time>2015-02-14T08:57:22Z</time>
      </trkpt>
      <trkpt lat="48.40909" lon="2.63363">
        <ele>134</ele>
        <time>2015-02-14T08:57:31Z</time>
      </trkpt>
      <trkpt lat="48.40916" lon="2.63353">
        <ele>135</ele>
        <time>2015-02-14T08:57:37Z</time>
      </trkpt>
      <trkpt lat="48.40944" lon="2.6332">
        <ele>135</ele>
        <time>2015-02-14T08:58:04Z</time>
      </trkpt>
      <trkpt lat="48.40954" lon="2.63308">
        <ele>134</ele>
        <time>2015-02-14T08:58:15Z</time>
      </trkpt>
      <trkpt lat="48.40954" lon="2.63292">
        <ele>134</ele>
        <time>2015-02-14T08:58:22Z</time>
      </trkpt>
      <trkpt lat="48.40969" lon="2.63248">
        <ele>133</ele>
        <time>2015-02-14T08:58:44Z</time>
      </trkpt>
      <trkpt lat="48.4098" lon="2.63191">
        <ele>134</ele>
        <time>2015-02-14T08:59:14Z</time>
      </trkpt>
      <trkpt lat="48.40988" lon="2.63185">
        <ele>134</ele>
        <time>2015-02-14T08:59:21Z</time>
      </trkpt>
      <trkpt lat="48.40988" lon="2.63178">
        <ele>133</ele>
        <time>2015-02-14T08:59:25Z</time>
      </trkpt>
      <trkpt lat="48.40996" lon="2.63144">
        <ele>132</ele>
        <time>2015-02-14T08:59:41Z</time>
      </trkpt>
      <trkpt lat="48.40995" lon="2.6314">
        <ele>132</ele>
        <time>2015-02-14T08:59:43Z</time>
      </trkpt>
      <trkpt lat="48.41001" lon="2.63114">
        <ele>132</ele>
        <time>2015-02-14T08:59:55Z</time>
      </trkpt>
      <trkpt lat="48.41" lon="2.63089">
        <ele>133</ele>
        <time>2015-02-14T09:00:04Z</time>
      </trkpt>
      <trkpt lat="48.41004" lon="2.63073">
        <ele>133</ele>
        <time>2015-02-14T09:00:11Z</time>
      </trkpt>
      <trkpt lat="48.41005" lon="2.63065">
        <ele>133</ele>
        <time>2015-02-14T09:00:15Z</time>
      </trkpt>
      <trkpt lat="48.41012" lon="2.63055">
        <ele>133</ele>
        <time>2015-02-14T09:00:26Z</time>
      </trkpt>
      <trkpt lat="48.41015" lon="2.6304">
        <ele>131</ele>
        <time>2015-02-14T09:00:34Z</time>
      </trkpt>
      <trkpt lat="48.41017" lon="2.63034">
        <ele>131</ele>
        <time>2015-02-14T09:00:38Z</time>
      </trkpt>
      <trkpt lat="48.41015" lon="2.62998">
        <ele>131</ele>
        <time>2015-02-14T09:00:53Z</time>
      </trkpt>
      <trkpt lat="48.41013" lon="2.62989">
        <ele>131</ele>
        <time>2015-02-14T09:00:56Z</time>
      </trkpt>
      <trkpt lat="48.41004" lon="2.62974">
        <ele>132</ele>
        <time>2015-02-14T09:01:04Z</time>
      </trkpt>
      <trkpt lat="48.41002" lon="2.62965">
        <ele>133</ele>
        <time>2015-02-14T09:01:07Z</time>
      </trkpt>
      <trkpt lat="48.40987" lon="2.62919">
        <ele>134</ele>
        <time>2015-02-14T09:01:26Z</time>
      </trkpt>
      <trkpt lat="48.40987" lon="2.62912">
        <ele>133</ele>
        <time>2015-02-14T09:01:30Z</time>
      </trkpt>
      <trkpt lat="48.40985" lon="2.62885">
        <ele>133</ele>
        <time>2015-02-14T09:01:44Z</time>
      </trkpt>
      <trkpt lat="48.40975" lon="2.62828">
        <ele>130</ele>
        <time>2015-02-14T09:02:10Z</time>
      </trkpt>
      <trkpt lat="48.40975" lon="2.62821">
        <ele>130</ele>
        <time>2015-02-14T09:02:13Z</time>
      </trkpt>
      <trkpt lat="48.40969" lon="2.62785">
        <ele>132</ele>
        <time>2015-02-14T09:02:27Z</time>
      </trkpt>
      <trkpt lat="48.40966" lon="2.62747">
        <ele>131</ele>
        <time>2015-02-14T09:02:46Z</time>
      </trkpt>
      <trkpt lat="48.40966" lon="2.62736">
        <ele>131</ele>
        <time>2015-02-14T09:02:51Z</time>
      </trkpt>
      <trkpt lat="48.40959" lon="2.62712">
        <ele>130</ele>
        <time>2015-02-14T09:03:01Z</time>
      </trkpt>
      <trkpt lat="48.40959" lon="2.62697">
        <ele>129</ele>
        <time>2015-02-14T09:03:10Z</time>
      </trkpt>
      <trkpt lat="48.4096" lon="2.62625">
        <ele>128</ele>
        <time>2015-02-14T09:03:38Z</time>
      </trkpt>
      <trkpt lat="48.40967" lon="2.62616">
        <ele>128</ele>
        <time>2015-02-14T09:03:47Z</time>
      </trkpt>
      <trkpt lat="48.4097" lon="2.62584">
        <ele>126</ele>
        <time>2015-02-14T09:04:02Z</time>
      </trkpt>
      <trkpt lat="48.40971" lon="2.62552">
        <ele>126</ele>
        <time>2015-02-14T09:04:15Z</time>
      </trkpt>
      <trkpt lat="48.40989" lon="2.62506">
        <ele>124</ele>
        <time>2015-02-14T09:04:38Z</time>
      </trkpt>
      <trkpt lat="48.40993" lon="2.62503">
        <ele>124</ele>
        <time>2015-02-14T09:04:42Z</time>
      </trkpt>
      <trkpt lat="48.41008" lon="2.62466">
        <ele>123</ele>
        <time>2015-02-14T09:04:58Z</time>
      </trkpt>
      <trkpt lat="48.4101" lon="2.62458">
        <ele>123</ele>
        <time>2015-02-14T09:05:01Z</time>
      </trkpt>
      <trkpt lat="48.41017" lon="2.62441">
        <ele>123</ele>
        <time>2015-02-14T09:05:09Z</time>
      </trkpt>
      <trkpt lat="48.41027" lon="2.62441">
        <ele>122</ele>
        <time>2015-02-14T09:05:16Z</time>
      </trkpt>
      <trkpt lat="48.41052" lon="2.62386">
        <ele>122</ele>
        <time>2015-02-14T09:05:41Z</time>
      </trkpt>
      <trkpt lat="48.41063" lon="2.62362">
        <ele>123</ele>
        <time>2015-02-14T09:05:54Z</time>
      </trkpt>
      <trkpt lat="48.41067" lon="2.62312">
        <ele>122</ele>
        <time>2015-02-14T09:06:10Z</time>
      </trkpt>
      <trkpt lat="48.41065" lon="2.62297">
        <ele>122</ele>
        <time>2015-02-14T09:06:16Z</time>
      </trkpt>
      <trkpt lat="48.41062" lon="2.62217">
        <ele>118</ele>
        <time>2015-02-14T09:06:48Z</time>
      </trkpt>
      <trkpt lat="48.41061" lon="2.62147">
        <ele>111</ele>
        <time>2015-02-14T09:07:19Z</time>
      </trkpt>
      <trkpt lat="48.41063" lon="2.62134">
        <ele>111</ele>
        <time>2015-02-14T09:07:24Z</time>
      </trkpt>
      <trkpt lat="48.41061" lon="2.62099">
        <ele>110</ele>
        <time>2015-02-14T09:07:37Z</time>
      </trkpt>
      <trkpt lat="48.41063" lon="2.6209">
        <ele>109</ele>
        <time>2015-02-14T09:07:41Z</time>
      </trkpt>
      <trkpt lat="48.41066" lon="2.62085">
        <ele>109</ele>
        <time>2015-02-14T09:07:44Z</time>
      </trkpt>
      <trkpt lat="48.41074" lon="2.6201">
        <ele>109</ele>
        <time>2015-02-14T09:08:15Z</time>
      </trkpt>
      <trkpt lat="48.41077" lon="2.61972">
        <ele>109</ele>
        <time>2015-02-14T09:08:29Z</time>
      </trkpt>
      <trkpt lat="48.4109" lon="2.61904">
        <ele>104</ele>
        <time>2015-02-14T09:08:59Z</time>
      </trkpt>
      <trkpt lat="48.41093" lon="2.61898">
        <ele>103</ele>
        <time>2015-02-14T09:09:03Z</time>
      </trkpt>
      <trkpt lat="48.41096" lon="2.61883">
        <ele>103</ele>
        <time>2015-02-14T09:09:10Z</time>
      </trkpt>
      <trkpt lat="48.41097" lon="2.61867">
        <ele>102</ele>
        <time>2015-02-14T09:09:18Z</time>
      </trkpt>
      <trkpt lat="48.41098" lon="2.61856">
        <ele>102</ele>
        <time>2015-02-14T09:09:21Z</time>
      </trkpt>
      <trkpt lat="48.41102" lon="2.61826">
        <ele>100</ele>
        <time>2015-02-14T09:09:32Z</time>
      </trkpt>
      <trkpt lat="48.41105" lon="2.61821">
        <ele>99</ele>
        <time>2015-02-14T09:09:37Z</time>
      </trkpt>
      <trkpt lat="48.41108" lon="2.6181">
        <ele>99</ele>
        <time>2015-02-14T09:09:43Z</time>
      </trkpt>
      <trkpt lat="48.4111" lon="2.6178">
        <ele>98</ele>
        <time>2015-02-14T09:09:55Z</time>
      </trkpt>
      <trkpt lat="48.4111" lon="2.61773">
        <ele>99</ele>
        <time>2015-02-14T09:09:58Z</time>
      </trkpt>
      <trkpt lat="48.41111" lon="2.61766">
        <ele>99</ele>
        <time>2015-02-14T09:10:01Z</time>
      </trkpt>
      <trkpt lat="48.41113" lon="2.61758">
        <ele>98</ele>
        <time>2015-02-14T09:10:04Z</time>
      </trkpt>
      <trkpt lat="48.41114" lon="2.61743">
        <ele>98</ele>
        <time>2015-02-14T09:10:09Z</time>
      </trkpt>
      <trkpt lat="48.41121" lon="2.61718">
        <ele>97</ele>
        <time>2015-02-14T09:10:21Z</time>
      </trkpt>
      <trkpt lat="48.41127" lon="2.61664">
        <ele>99</ele>
        <time>2015-02-14T09:10:39Z</time>
      </trkpt>
      <trkpt lat="48.41133" lon="2.61659">
        <ele>99</ele>
        <time>2015-02-14T09:10:43Z</time>
      </trkpt>
      <trkpt lat="48.41136" lon="2.61642">
        <ele>98</ele>
        <time>2015-02-14T09:10:50Z</time>
      </trkpt>
      <trkpt lat="48.41138" lon="2.61633">
        <ele>99</ele>
        <time>2015-02-14T09:10:53Z</time>
      </trkpt>
      <trkpt lat="48.41137" lon="2.61625">
        <ele>99</ele>
        <time>2015-02-14T09:10:56Z</time>
      </trkpt>
      <trkpt lat="48.41138" lon="2.61617">
        <ele>99</ele>
        <time>2015-02-14T09:11:00Z</time>
      </trkpt>
      <trkpt lat="48.41138" lon="2.61609">
        <ele>99</ele>
        <time>2015-02-14T09:11:03Z</time>
      </trkpt>
      <trkpt lat="48.41138" lon="2.61603">
        <ele>98</ele>
        <time>2015-02-14T09:11:08Z</time>
      </trkpt>
      <trkpt lat="48.4114" lon="2.616">
        <ele>98</ele>
        <time>2015-02-14T09:11:11Z</time>
      </trkpt>
      <trkpt lat="48.41149" lon="2.61572">
        <ele>96</ele>
        <time>2015-02-14T09:11:22Z</time>
      </trkpt>
      <trkpt lat="48.41152" lon="2.61548">
        <ele>95</ele>
        <time>2015-02-14T09:11:31Z</time>
      </trkpt>
      <trkpt lat="48.41154" lon="2.6154">
        <ele>95</ele>
        <time>2015-02-14T09:11:33Z</time>
      </trkpt>
      <trkpt lat="48.4116" lon="2.61525">
        <ele>95</ele>
        <time>2015-02-14T09:11:40Z</time>
      </trkpt>
      <trkpt lat="48.41162" lon="2.61479">
        <ele>96</ele>
        <time>2015-02-14T09:11:58Z</time>
      </trkpt>
      <trkpt lat="48.41158" lon="2.61449">
        <ele>95</ele>
        <time>2015-02-14T09:12:12Z</time>
      </trkpt>
      <trkpt lat="48.41158" lon="2.61421">
        <ele>92</ele>
        <time>2015-02-14T09:12:23Z</time>
      </trkpt>
      <trkpt lat="48.41155" lon="2.6141">
        <ele>92</ele>
        <time>2015-02-14T09:12:28Z</time>
      </trkpt>
      <trkpt lat="48.41153" lon="2.61395">
        <ele>93</ele>
        <time>2015-02-14T09:12:36Z</time>
      </trkpt>
      <trkpt lat="48.41144" lon="2.61321">
        <ele>90</ele>
        <time>2015-02-14T09:13:08Z</time>
      </trkpt>
      <trkpt lat="48.41139" lon="2.61245">
        <ele>90</ele>
        <time>2015-02-14T09:13:40Z</time>
      </trkpt>
      <trkpt lat="48.41133" lon="2.61203">
        <ele>89</ele>
        <time>2015-02-14T09:13:55Z</time>
      </trkpt>
      <trkpt lat="48.41138" lon="2.61186">
        <ele>88</ele>
        <time>2015-02-14T09:14:05Z</time>
      </trkpt>
      <trkpt lat="48.41131" lon="2.61142">
        <ele>87</ele>
        <time>2015-02-14T09:14:29Z</time>
      </trkpt>
      <trkpt lat="48.41125" lon="2.61064">
        <ele>88</ele>
        <time>2015-02-14T09:15:00Z</time>
      </trkpt>
      <trkpt lat="48.41118" lon="2.6102">
        <ele>87</ele>
        <time>2015-02-14T09:15:17Z</time>
      </trkpt>
      <trkpt lat="48.4112" lon="2.61001">
        <ele>87</ele>
        <time>2015-02-14T09:15:23Z</time>
      </trkpt>
      <trkpt lat="48.41105" lon="2.60923">
        <ele>86</ele>
        <time>2015-02-14T09:15:55Z</time>
      </trkpt>
      <trkpt lat="48.41104" lon="2.60913">
        <ele>85</ele>
        <time>2015-02-14T09:15:58Z</time>
      </trkpt>
      <trkpt lat="48.41107" lon="2.60906">
        <ele>85</ele>
        <time>2015-02-14T09:16:03Z</time>
      </trkpt>
      <trkpt lat="48.41106" lon="2.60897">
        <ele>85</ele>
        <time>2015-02-14T09:16:07Z</time>
      </trkpt>
      <trkpt lat="48.41093" lon="2.6086">
        <ele>85</ele>
        <time>2015-02-14T09:16:25Z</time>
      </trkpt>
      <trkpt lat="48.41076" lon="2.60839">
        <ele>88</ele>
        <time>2015-02-14T09:16:40Z</time>
      </trkpt>
      <trkpt lat="48.41072" lon="2.60833">
        <ele>88</ele>
        <time>2015-02-14T09:16:43Z</time>
      </trkpt>
      <trkpt lat="48.41065" lon="2.6082">
        <ele>88</ele>
        <time>2015-02-14T09:16:49Z</time>
      </trkpt>
      <trkpt lat="48.4106" lon="2.60812">
        <ele>88</ele>
        <time>2015-02-14T09:16:54Z</time>
      </trkpt>
      <trkpt lat="48.41056" lon="2.60812">
        <ele>88</ele>
        <time>2015-02-14T09:16:57Z</time>
      </trkpt>
      <trkpt lat="48.41053" lon="2.60814">
        <ele>88</ele>
        <time>2015-02-14T09:16:59Z</time>
      </trkpt>
      <trkpt lat="48.41048" lon="2.60812">
        <ele>88</ele>
        <time>2015-02-14T09:17:03Z</time>
      </trkpt>
      <trkpt lat="48.41042" lon="2.60806">
        <ele>89</ele>
        <time>2015-02-14T09:17:10Z</time>
      </trkpt>
      <trkpt lat="48.41032" lon="2.60804">
        <ele>89</ele>
        <time>2015-02-14T09:17:18Z</time>
      </trkpt>
      <trkpt lat="48.41023" lon="2.60802">
        <ele>90</ele>
        <time>2015-02-14T09:17:23Z</time>
      </trkpt>
      <trkpt lat="48.41007" lon="2.60803">
        <ele>91</ele>
        <time>2015-02-14T09:17:29Z</time>
      </trkpt>
      <trkpt lat="48.41004" lon="2.608">
        <ele>90</ele>
        <time>2015-02-14T09:17:31Z</time>
      </trkpt>
      <trkpt lat="48.41002" lon="2.60793">
        <ele>90</ele>
        <time>2015-02-14T09:17:33Z</time>
      </trkpt>
      <trkpt lat="48.41007" lon="2.60781">
        <ele>88</ele>
        <time>2015-02-14T09:17:40Z</time>
      </trkpt>
      <trkpt lat="48.41008" lon="2.60755">
        <ele>87</ele>
        <time>2015-02-14T09:17:51Z</time>
      </trkpt>
      <trkpt lat="48.41012" lon="2.60736">
        <ele>86</ele>
        <time>2015-02-14T09:17:58Z</time>
      </trkpt>
      <trkpt lat="48.41011" lon="2.60718">
        <ele>86</ele>
        <time>2015-02-14T09:18:03Z</time>
      </trkpt>
      <trkpt lat="48.41014" lon="2.60704">
        <ele>85</ele>
        <time>2015-02-14T09:18:11Z</time>
      </trkpt>
      <trkpt lat="48.41017" lon="2.60678">
        <ele>85</ele>
        <time>2015-02-14T09:18:24Z</time>
      </trkpt>
      <trkpt lat="48.41015" lon="2.60671">
        <ele>85</ele>
        <time>2015-02-14T09:18:27Z</time>
      </trkpt>
      <trkpt lat="48.41021" lon="2.60659">
        <ele>85</ele>
        <time>2015-02-14T09:18:37Z</time>
      </trkpt>
      <trkpt lat="48.41023" lon="2.60654">
        <ele>84</ele>
        <time>2015-02-14T09:18:46Z</time>
      </trkpt>
      <trkpt lat="48.41028" lon="2.60596">
        <ele>84</ele>
        <time>2015-02-14T09:19:17Z</time>
      </trkpt>
      <trkpt lat="48.41031" lon="2.60573">
        <ele>84</ele>
        <time>2015-02-14T09:19:29Z</time>
      </trkpt>
      <trkpt lat="48.41031" lon="2.60564">
        <ele>84</ele>
        <time>2015-02-14T09:19:33Z</time>
      </trkpt>
      <trkpt lat="48.41034" lon="2.60559">
        <ele>84</ele>
        <time>2015-02-14T09:19:40Z</time>
      </trkpt>
      <trkpt lat="48.41035" lon="2.60552">
        <ele>84</ele>
        <time>2015-02-14T09:19:44Z</time>
      </trkpt>
      <trkpt lat="48.41032" lon="2.60535">
        <ele>84</ele>
        <time>2015-02-14T09:19:50Z</time>
      </trkpt>
      <trkpt lat="48.41036" lon="2.60514">
        <ele>84</ele>
        <time>2015-02-14T09:20:02Z</time>
      </trkpt>
      <trkpt lat="48.41037" lon="2.60497">
        <ele>85</ele>
        <time>2015-02-14T09:20:11Z</time>
      </trkpt>
      <trkpt lat="48.41044" lon="2.60432">
        <ele>84</ele>
        <time>2015-02-14T09:20:42Z</time>
      </trkpt>
      <trkpt lat="48.41054" lon="2.6038">
        <ele>84</ele>
        <time>2015-02-14T09:21:13Z</time>
      </trkpt>
      <trkpt lat="48.41055" lon="2.60376">
        <ele>84</ele>
        <time>2015-02-14T09:21:15Z</time>
      </trkpt>
      <trkpt lat="48.41059" lon="2.60346">
        <ele>84</ele>
        <time>2015-02-14T09:21:29Z</time>
      </trkpt>
      <trkpt lat="48.41059" lon="2.60335">
        <ele>83</ele>
        <time>2015-02-14T09:21:33Z</time>
      </trkpt>
      <trkpt lat="48.41059" lon="2.60327">
        <ele>83</ele>
        <time>2015-02-14T09:21:37Z</time>
      </trkpt>
      <trkpt lat="48.41069" lon="2.60262">
        <ele>81</ele>
        <time>2015-02-14T09:22:08Z</time>
      </trkpt>
      <trkpt lat="48.41079" lon="2.60232">
        <ele>79</ele>
        <time>2015-02-14T09:22:25Z</time>
      </trkpt>
      <trkpt lat="48.41079" lon="2.60185">
        <ele>79</ele>
        <time>2015-02-14T09:22:43Z</time>
      </trkpt>
      <trkpt lat="48.41082" lon="2.60179">
        <ele>80</ele>
        <time>2015-02-14T09:22:46Z</time>
      </trkpt>
      <trkpt lat="48.41082" lon="2.60145">
        <ele>81</ele>
        <time>2015-02-14T09:23:05Z</time>
      </trkpt>
      <trkpt lat="48.41095" lon="2.60068">
        <ele>80</ele>
        <time>2015-02-14T09:23:39Z</time>
      </trkpt>
      <trkpt lat="48.41096" lon="2.60017">
        <ele>79</ele>
        <time>2015-02-14T09:23:57Z</time>
      </trkpt>
      <trkpt lat="48.41098" lon="2.6001">
        <ele>78</ele>
        <time>2015-02-14T09:24:01Z</time>
      </trkpt>
      <trkpt lat="48.41099" lon="2.60001">
        <ele>78</ele>
        <time>2015-02-14T09:24:05Z</time>
      </trkpt>
      <trkpt lat="48.41102" lon="2.59928">
        <ele>79</ele>
        <time>2015-02-14T09:24:33Z</time>
      </trkpt>
      <trkpt lat="48.41102" lon="2.59913">
        <ele>78</ele>
        <time>2015-02-14T09:24:39Z</time>
      </trkpt>
      <trkpt lat="48.41108" lon="2.59845">
        <ele>79</ele>
        <time>2015-02-14T09:25:09Z</time>
      </trkpt>
      <trkpt lat="48.411" lon="2.5984">
        <ele>79</ele>
        <time>2015-02-14T09:25:15Z</time>
      </trkpt>
      <trkpt lat="48.41096" lon="2.59838">
        <ele>80</ele>
        <time>2015-02-14T09:25:20Z</time>
      </trkpt>
      <trkpt lat="48.41087" lon="2.5983">
        <ele>79</ele>
        <time>2015-02-14T09:25:28Z</time>
      </trkpt>
      <trkpt lat="48.41065" lon="2.59826">
        <ele>78</ele>
        <time>2015-02-14T09:25:43Z</time>
      </trkpt>
      <trkpt lat="48.41061" lon="2.59821">
        <ele>79</ele>
        <time>2015-02-14T09:25:47Z</time>
      </trkpt>
      <trkpt lat="48.41004" lon="2.59797">
        <ele>80</ele>
        <time>2015-02-14T09:26:19Z</time>
      </trkpt>
      <trkpt lat="48.40948" lon="2.59779">
        <ele>81</ele>
        <time>2015-02-14T09:26:53Z</time>
      </trkpt>
      <trkpt lat="48.40937" lon="2.59778">
        <ele>82</ele>
        <time>2015-02-14T09:27:03Z</time>
      </trkpt>
      <trkpt lat="48.40939" lon="2.59781">
        <ele>82</ele>
        <time>2015-02-14T09:28:01Z</time>
      </trkpt>
      <trkpt lat="48.4093" lon="2.59778">
        <ele>82</ele>
        <time>2015-02-14T09:28:21Z</time>
      </trkpt>
      <trkpt lat="48.40897" lon="2.59786">
        <ele>85</ele>
        <time>2015-02-14T09:28:40Z</time>
      </trkpt>
      <trkpt lat="48.40892" lon="2.59798">
        <ele>86</ele>
        <time>2015-02-14T09:28:48Z</time>
      </trkpt>
      <trkpt lat="48.40883" lon="2.59802">
        <ele>86</ele>
        <time>2015-02-14T09:28:55Z</time>
      </trkpt>
      <trkpt lat="48.40865" lon="2.59808">
        <ele>87</ele>
        <time>2015-02-14T09:29:09Z</time>
      </trkpt>
      <trkpt lat="48.40855" lon="2.59807">
        <ele>87</ele>
        <time>2015-02-14T09:29:15Z</time>
      </trkpt>
      <trkpt lat="48.40822" lon="2.59824">
        <ele>90</ele>
        <time>2015-02-14T09:29:38Z</time>
      </trkpt>
      <trkpt lat="48.40813" lon="2.59827">
        <ele>91</ele>
        <time>2015-02-14T09:29:46Z</time>
      </trkpt>
      <trkpt lat="48.40766" lon="2.59842">
        <ele>94</ele>
        <time>2015-02-14T09:30:17Z</time>
      </trkpt>
      <trkpt lat="48.40757" lon="2.59847">
        <ele>95</ele>
        <time>2015-02-14T09:30:24Z</time>
      </trkpt>
      <trkpt lat="48.40751" lon="2.59844">
        <ele>96</ele>
        <time>2015-02-14T09:30:33Z</time>
      </trkpt>
      <trkpt lat="48.40749" lon="2.59837">
        <ele>97</ele>
        <time>2015-02-14T09:30:39Z</time>
      </trkpt>
      <trkpt lat="48.40746" lon="2.59832">
        <ele>97</ele>
        <time>2015-02-14T09:30:47Z</time>
      </trkpt>
      <trkpt lat="48.4074" lon="2.59822">
        <ele>98</ele>
        <time>2015-02-14T09:30:59Z</time>
      </trkpt>
      <trkpt lat="48.40736" lon="2.59817">
        <ele>98</ele>
        <time>2015-02-14T09:31:02Z</time>
      </trkpt>
      <trkpt lat="48.40728" lon="2.59811">
        <ele>98</ele>
        <time>2015-02-14T09:31:11Z</time>
      </trkpt>
      <trkpt lat="48.40723" lon="2.59809">
        <ele>98</ele>
        <time>2015-02-14T09:31:16Z</time>
      </trkpt>
      <trkpt lat="48.40719" lon="2.59804">
        <ele>100</ele>
        <time>2015-02-14T09:31:21Z</time>
      </trkpt>
      <trkpt lat="48.40714" lon="2.59803">
        <ele>101</ele>
        <time>2015-02-14T09:31:24Z</time>
      </trkpt>
      <trkpt lat="48.40709" lon="2.59804">
        <ele>101</ele>
        <time>2015-02-14T09:31:29Z</time>
      </trkpt>
      <trkpt lat="48.40705" lon="2.59801">
        <ele>102</ele>
        <time>2015-02-14T09:31:33Z</time>
      </trkpt>
      <trkpt lat="48.40705" lon="2.59794">
        <ele>104</ele>
        <time>2015-02-14T09:31:37Z</time>
      </trkpt>
      <trkpt lat="48.40704" lon="2.59787">
        <ele>105</ele>
        <time>2015-02-14T09:31:44Z</time>
      </trkpt>
      <trkpt lat="48.40704" lon="2.5978">
        <ele>105</ele>
        <time>2015-02-14T09:31:51Z</time>
      </trkpt>
      <trkpt lat="48.407" lon="2.59776">
        <ele>106</ele>
        <time>2015-02-14T09:31:55Z</time>
      </trkpt>
      <trkpt lat="48.40696" lon="2.59771">
        <ele>106</ele>
        <time>2015-02-14T09:32:01Z</time>
      </trkpt>
      <trkpt lat="48.4069" lon="2.59768">
        <ele>106</ele>
        <time>2015-02-14T09:32:06Z</time>
      </trkpt>
      <trkpt lat="48.40686" lon="2.59764">
        <ele>106</ele>
        <time>2015-02-14T09:32:11Z</time>
      </trkpt>
      <trkpt lat="48.40673" lon="2.59753">
        <ele>109</ele>
        <time>2015-02-14T09:32:23Z</time>
      </trkpt>
      <trkpt lat="48.40668" lon="2.5975">
        <ele>108</ele>
        <time>2015-02-14T09:32:28Z</time>
      </trkpt>
      <trkpt lat="48.40656" lon="2.59736">
        <ele>114</ele>
        <time>2015-02-14T09:32:46Z</time>
      </trkpt>
      <trkpt lat="48.40653" lon="2.59736">
        <ele>114</ele>
        <time>2015-02-14T09:32:54Z</time>
      </trkpt>
      <trkpt lat="48.40644" lon="2.59745">
        <ele>117</ele>
        <time>2015-02-14T09:33:07Z</time>
      </trkpt>
      <trkpt lat="48.40641" lon="2.59747">
        <ele>118</ele>
        <time>2015-02-14T09:33:27Z</time>
      </trkpt>
      <trkpt lat="48.40639" lon="2.59748">
        <ele>118</ele>
        <time>2015-02-14T09:34:25Z</time>
      </trkpt>
      <trkpt lat="48.40639" lon="2.59749">
        <ele>118</ele>
        <time>2015-02-14T09:34:43Z</time>
      </trkpt>
      <trkpt lat="48.40638" lon="2.59756">
        <ele>119</ele>
        <time>2015-02-14T09:34:50Z</time>
      </trkpt>
      <trkpt lat="48.40636" lon="2.59762">
        <ele>119</ele>
        <time>2015-02-14T09:34:55Z</time>
      </trkpt>
      <trkpt lat="48.40632" lon="2.59767">
        <ele>120</ele>
        <time>2015-02-14T09:34:59Z</time>
      </trkpt>
      <trkpt lat="48.40627" lon="2.59769">
        <ele>120</ele>
        <time>2015-02-14T09:35:07Z</time>
      </trkpt>
      <trkpt lat="48.40618" lon="2.59786">
        <ele>120</ele>
        <time>2015-02-14T09:35:21Z</time>
      </trkpt>
      <trkpt lat="48.40603" lon="2.59811">
        <ele>123</ele>
        <time>2015-02-14T09:35:39Z</time>
      </trkpt>
      <trkpt lat="48.40606" lon="2.59818">
        <ele>123</ele>
        <time>2015-02-14T09:35:42Z</time>
      </trkpt>
      <trkpt lat="48.4062" lon="2.59831">
        <ele>123</ele>
        <time>2015-02-14T09:35:51Z</time>
      </trkpt>
      <trkpt lat="48.40623" lon="2.59838">
        <ele>123</ele>
        <time>2015-02-14T09:35:55Z</time>
      </trkpt>
      <trkpt lat="48.40626" lon="2.59846">
        <ele>124</ele>
        <time>2015-02-14T09:35:58Z</time>
      </trkpt>
      <trkpt lat="48.40629" lon="2.59849">
        <ele>124</ele>
        <time>2015-02-14T09:35:59Z</time>
      </trkpt>
      <trkpt lat="48.40631" lon="2.59855">
        <ele>124</ele>
        <time>2015-02-14T09:36:04Z</time>
      </trkpt>
      <trkpt lat="48.40633" lon="2.59863">
        <ele>124</ele>
        <time>2015-02-14T09:36:07Z</time>
      </trkpt>
      <trkpt lat="48.40637" lon="2.5987">
        <ele>124</ele>
        <time>2015-02-14T09:36:10Z</time>
      </trkpt>
      <trkpt lat="48.40635" lon="2.59876">
        <ele>124</ele>
        <time>2015-02-14T09:36:17Z</time>
      </trkpt>
      <trkpt lat="48.40641" lon="2.59918">
        <ele>125</ele>
        <time>2015-02-14T09:36:34Z</time>
      </trkpt>
      <trkpt lat="48.40643" lon="2.59949">
        <ele>126</ele>
        <time>2015-02-14T09:36:46Z</time>
      </trkpt>
      <trkpt lat="48.40642" lon="2.59968">
        <ele>126</ele>
        <time>2015-02-14T09:36:55Z</time>
      </trkpt>
      <trkpt lat="48.40642" lon="2.59973">
        <ele>126</ele>
        <time>2015-02-14T09:36:57Z</time>
      </trkpt>
      <trkpt lat="48.40646" lon="2.59984">
        <ele>126</ele>
        <time>2015-02-14T09:37:02Z</time>
      </trkpt>
      <trkpt lat="48.40647" lon="2.59991">
        <ele>126</ele>
        <time>2015-02-14T09:37:05Z</time>
      </trkpt>
      <trkpt lat="48.40646" lon="2.6">
        <ele>126</ele>
        <time>2015-02-14T09:37:10Z</time>
      </trkpt>
      <trkpt lat="48.40646" lon="2.60007">
        <ele>126</ele>
        <time>2015-02-14T09:37:14Z</time>
      </trkpt>
      <trkpt lat="48.40641" lon="2.60022">
        <ele>126</ele>
        <time>2015-02-14T09:37:22Z</time>
      </trkpt>
      <trkpt lat="48.40642" lon="2.60031">
        <ele>126</ele>
        <time>2015-02-14T09:37:25Z</time>
      </trkpt>
      <trkpt lat="48.40646" lon="2.60035">
        <ele>126</ele>
        <time>2015-02-14T09:37:29Z</time>
      </trkpt>
      <trkpt lat="48.40647" lon="2.60042">
        <ele>126</ele>
        <time>2015-02-14T09:37:32Z</time>
      </trkpt>
      <trkpt lat="48.40645" lon="2.60054">
        <ele>126</ele>
        <time>2015-02-14T09:37:37Z</time>
      </trkpt>
      <trkpt lat="48.40643" lon="2.6006">
        <ele>127</ele>
        <time>2015-02-14T09:37:40Z</time>
      </trkpt>
      <trkpt lat="48.40633" lon="2.6014">
        <ele>125</ele>
        <time>2015-02-14T09:38:11Z</time>
      </trkpt>
      <trkpt lat="48.40626" lon="2.60184">
        <ele>125</ele>
        <time>2015-02-14T09:38:29Z</time>
      </trkpt>
      <trkpt lat="48.40621" lon="2.60204">
        <ele>125</ele>
        <time>2015-02-14T09:38:39Z</time>
      </trkpt>
      <trkpt lat="48.40613" lon="2.60277">
        <ele>123</ele>
        <time>2015-02-14T09:39:09Z</time>
      </trkpt>
      <trkpt lat="48.40617" lon="2.60313">
        <ele>124</ele>
        <time>2015-02-14T09:39:24Z</time>
      </trkpt>
      <trkpt lat="48.4062" lon="2.60323">
        <ele>124</ele>
        <time>2015-02-14T09:39:28Z</time>
      </trkpt>
      <trkpt lat="48.40661" lon="2.60373">
        <ele>126</ele>
        <time>2015-02-14T09:39:59Z</time>
      </trkpt>
      <trkpt lat="48.4067" lon="2.60385">
        <ele>126</ele>
        <time>2015-02-14T09:40:09Z</time>
      </trkpt>
      <trkpt lat="48.40675" lon="2.60388">
        <ele>127</ele>
        <time>2015-02-14T09:40:13Z</time>
      </trkpt>
      <trkpt lat="48.40677" lon="2.60394">
        <ele>127</ele>
        <time>2015-02-14T09:40:20Z</time>
      </trkpt>
      <trkpt lat="48.40682" lon="2.60397">
        <ele>126</ele>
        <time>2015-02-14T09:40:24Z</time>
      </trkpt>
      <trkpt lat="48.40686" lon="2.60396">
        <ele>126</ele>
        <time>2015-02-14T09:40:28Z</time>
      </trkpt>
      <trkpt lat="48.40692" lon="2.60396">
        <ele>127</ele>
        <time>2015-02-14T09:40:34Z</time>
      </trkpt>
      <trkpt lat="48.40692" lon="2.60396">
        <ele>127</ele>
        <time>2015-02-14T09:40:53Z</time>
      </trkpt>
      <trkpt lat="48.40691" lon="2.60403">
        <ele>127</ele>
        <time>2015-02-14T09:41:17Z</time>
      </trkpt>
      <trkpt lat="48.40693" lon="2.60398">
        <ele>127</ele>
        <time>2015-02-14T09:41:34Z</time>
      </trkpt>
      <trkpt lat="48.40695" lon="2.60398">
        <ele>124</ele>
        <time>2015-02-14T09:43:41Z</time>
      </trkpt>
      <trkpt lat="48.40695" lon="2.60402">
        <ele>124</ele>
        <time>2015-02-14T09:44:53Z</time>
      </trkpt>
      <trkpt lat="48.40692" lon="2.60408">
        <ele>124</ele>
        <time>2015-02-14T09:44:57Z</time>
      </trkpt>
      <trkpt lat="48.40691" lon="2.60415">
        <ele>126</ele>
        <time>2015-02-14T09:45:01Z</time>
      </trkpt>
      <trkpt lat="48.40688" lon="2.6043">
        <ele>126</ele>
        <time>2015-02-14T09:45:09Z</time>
      </trkpt>
      <trkpt lat="48.4068" lon="2.60465">
        <ele>124</ele>
        <time>2015-02-14T09:45:24Z</time>
      </trkpt>
      <trkpt lat="48.40682" lon="2.60482">
        <ele>123</ele>
        <time>2015-02-14T09:45:31Z</time>
      </trkpt>
      <trkpt lat="48.40682" lon="2.60493">
        <ele>123</ele>
        <time>2015-02-14T09:45:36Z</time>
      </trkpt>
      <trkpt lat="48.40686" lon="2.60532">
        <ele>124</ele>
        <time>2015-02-14T09:45:53Z</time>
      </trkpt>
      <trkpt lat="48.40685" lon="2.6054">
        <ele>125</ele>
        <time>2015-02-14T09:45:57Z</time>
      </trkpt>
      <trkpt lat="48.40684" lon="2.60543">
        <ele>125</ele>
        <time>2015-02-14T09:45:59Z</time>
      </trkpt>
      <trkpt lat="48.40678" lon="2.60558">
        <ele>125</ele>
        <time>2015-02-14T09:46:05Z</time>
      </trkpt>
      <trkpt lat="48.40676" lon="2.60568">
        <ele>125</ele>
        <time>2015-02-14T09:46:10Z</time>
      </trkpt>
      <trkpt lat="48.40662" lon="2.60603">
        <ele>124</ele>
        <time>2015-02-14T09:46:30Z</time>
      </trkpt>
      <trkpt lat="48.40663" lon="2.60609">
        <ele>124</ele>
        <time>2015-02-14T09:46:33Z</time>
      </trkpt>
      <trkpt lat="48.4067" lon="2.60642">
        <ele>123</ele>
        <time>2015-02-14T09:46:46Z</time>
      </trkpt>
      <trkpt lat="48.40669" lon="2.60665">
        <ele>123</ele>
        <time>2015-02-14T09:46:53Z</time>
      </trkpt>
      <trkpt lat="48.40672" lon="2.60672">
        <ele>123</ele>
        <time>2015-02-14T09:46:57Z</time>
      </trkpt>
      <trkpt lat="48.40675" lon="2.60674">
        <ele>122</ele>
        <time>2015-02-14T09:47:04Z</time>
      </trkpt>
      <trkpt lat="48.40676" lon="2.60681">
        <ele>122</ele>
        <time>2015-02-14T09:47:08Z</time>
      </trkpt>
      <trkpt lat="48.40675" lon="2.60688">
        <ele>121</ele>
        <time>2015-02-14T09:47:26Z</time>
      </trkpt>
      <trkpt lat="48.40675" lon="2.60704">
        <ele>121</ele>
        <time>2015-02-14T09:47:34Z</time>
      </trkpt>
      <trkpt lat="48.40675" lon="2.60711">
        <ele>120</ele>
        <time>2015-02-14T09:47:37Z</time>
      </trkpt>
      <trkpt lat="48.40676" lon="2.60717">
        <ele>120</ele>
        <time>2015-02-14T09:47:40Z</time>
      </trkpt>
      <trkpt lat="48.40681" lon="2.60775">
        <ele>123</ele>
        <time>2015-02-14T09:48:06Z</time>
      </trkpt>
      <trkpt lat="48.40681" lon="2.60783">
        <ele>123</ele>
        <time>2015-02-14T09:48:10Z</time>
      </trkpt>
      <trkpt lat="48.40681" lon="2.60791">
        <ele>121</ele>
        <time>2015-02-14T09:48:14Z</time>
      </trkpt>
      <trkpt lat="48.40679" lon="2.60806">
        <ele>121</ele>
        <time>2015-02-14T09:48:21Z</time>
      </trkpt>
      <trkpt lat="48.40679" lon="2.60813">
        <ele>121</ele>
        <time>2015-02-14T09:48:24Z</time>
      </trkpt>
      <trkpt lat="48.40677" lon="2.6082">
        <ele>121</ele>
        <time>2015-02-14T09:48:27Z</time>
      </trkpt>
      <trkpt lat="48.40676" lon="2.6089">
        <ele>122</ele>
        <time>2015-02-14T09:48:59Z</time>
      </trkpt>
      <trkpt lat="48.40675" lon="2.6091">
        <ele>124</ele>
        <time>2015-02-14T09:49:06Z</time>
      </trkpt>
      <trkpt lat="48.40675" lon="2.60921">
        <ele>124</ele>
        <time>2015-02-14T09:49:10Z</time>
      </trkpt>
      <trkpt lat="48.40681" lon="2.60933">
        <ele>123</ele>
        <time>2015-02-14T09:49:15Z</time>
      </trkpt>
      <trkpt lat="48.40684" lon="2.60948">
        <ele>123</ele>
        <time>2015-02-14T09:49:22Z</time>
      </trkpt>
      <trkpt lat="48.40682" lon="2.60976">
        <ele>120</ele>
        <time>2015-02-14T09:49:36Z</time>
      </trkpt>
      <trkpt lat="48.40672" lon="2.60994">
        <ele>119</ele>
        <time>2015-02-14T09:49:45Z</time>
      </trkpt>
      <trkpt lat="48.40669" lon="2.61003">
        <ele>119</ele>
        <time>2015-02-14T09:49:49Z</time>
      </trkpt>
      <trkpt lat="48.40663" lon="2.61023">
        <ele>121</ele>
        <time>2015-02-14T09:49:56Z</time>
      </trkpt>
      <trkpt lat="48.40659" lon="2.61037">
        <ele>121</ele>
        <time>2015-02-14T09:50:02Z</time>
      </trkpt>
      <trkpt lat="48.40656" lon="2.61081">
        <ele>122</ele>
        <time>2015-02-14T09:50:20Z</time>
      </trkpt>
      <trkpt lat="48.4066" lon="2.61097">
        <ele>122</ele>
        <time>2015-02-14T09:50:26Z</time>
      </trkpt>
      <trkpt lat="48.40665" lon="2.6112">
        <ele>122</ele>
        <time>2015-02-14T09:50:36Z</time>
      </trkpt>
      <trkpt lat="48.40668" lon="2.61122">
        <ele>123</ele>
        <time>2015-02-14T09:50:37Z</time>
      </trkpt>
      <trkpt lat="48.40671" lon="2.61132">
        <ele>122</ele>
        <time>2015-02-14T09:50:43Z</time>
      </trkpt>
      <trkpt lat="48.40668" lon="2.61138">
        <ele>122</ele>
        <time>2015-02-14T09:50:46Z</time>
      </trkpt>
      <trkpt lat="48.40665" lon="2.61146">
        <ele>122</ele>
        <time>2015-02-14T09:50:50Z</time>
      </trkpt>
      <trkpt lat="48.40664" lon="2.61183">
        <ele>121</ele>
        <time>2015-02-14T09:51:02Z</time>
      </trkpt>
      <trkpt lat="48.40673" lon="2.61233">
        <ele>121</ele>
        <time>2015-02-14T09:51:26Z</time>
      </trkpt>
      <trkpt lat="48.40671" lon="2.61241">
        <ele>121</ele>
        <time>2015-02-14T09:51:29Z</time>
      </trkpt>
      <trkpt lat="48.40669" lon="2.61258">
        <ele>121</ele>
        <time>2015-02-14T09:51:37Z</time>
      </trkpt>
      <trkpt lat="48.40666" lon="2.61265">
        <ele>121</ele>
        <time>2015-02-14T09:51:42Z</time>
      </trkpt>
      <trkpt lat="48.40663" lon="2.61279">
        <ele>122</ele>
        <time>2015-02-14T09:51:50Z</time>
      </trkpt>
      <trkpt lat="48.4066" lon="2.61286">
        <ele>122</ele>
        <time>2015-02-14T09:51:54Z</time>
      </trkpt>
      <trkpt lat="48.40659" lon="2.61294">
        <ele>121</ele>
        <time>2015-02-14T09:51:57Z</time>
      </trkpt>
      <trkpt lat="48.40661" lon="2.61302">
        <ele>121</ele>
        <time>2015-02-14T09:52:00Z</time>
      </trkpt>
      <trkpt lat="48.40657" lon="2.6131">
        <ele>121</ele>
        <time>2015-02-14T09:52:04Z</time>
      </trkpt>
      <trkpt lat="48.40638" lon="2.61335">
        <ele>122</ele>
        <time>2015-02-14T09:52:18Z</time>
      </trkpt>
      <trkpt lat="48.40633" lon="2.61341">
        <ele>122</ele>
        <time>2015-02-14T09:52:21Z</time>
      </trkpt>
      <trkpt lat="48.40621" lon="2.61363">
        <ele>121</ele>
        <time>2015-02-14T09:52:34Z</time>
      </trkpt>
      <trkpt lat="48.40616" lon="2.61376">
        <ele>122</ele>
        <time>2015-02-14T09:52:43Z</time>
      </trkpt>
      <trkpt lat="48.40616" lon="2.61391">
        <ele>123</ele>
        <time>2015-02-14T09:52:52Z</time>
      </trkpt>
      <trkpt lat="48.406" lon="2.61427">
        <ele>123</ele>
        <time>2015-02-14T09:53:07Z</time>
      </trkpt>
      <trkpt lat="48.40596" lon="2.61441">
        <ele>123</ele>
        <time>2015-02-14T09:53:13Z</time>
      </trkpt>
      <trkpt lat="48.40587" lon="2.61484">
        <ele>124</ele>
        <time>2015-02-14T09:53:32Z</time>
      </trkpt>
      <trkpt lat="48.40587" lon="2.61499">
        <ele>123</ele>
        <time>2015-02-14T09:53:40Z</time>
      </trkpt>
      <trkpt lat="48.40574" lon="2.61554">
        <ele>125</ele>
        <time>2015-02-14T09:54:07Z</time>
      </trkpt>
      <trkpt lat="48.40566" lon="2.61583">
        <ele>125</ele>
        <time>2015-02-14T09:54:21Z</time>
      </trkpt>
      <trkpt lat="48.40551" lon="2.61649">
        <ele>128</ele>
        <time>2015-02-14T09:54:52Z</time>
      </trkpt>
      <trkpt lat="48.40545" lon="2.61678">
        <ele>130</ele>
        <time>2015-02-14T09:55:06Z</time>
      </trkpt>
      <trkpt lat="48.40544" lon="2.61693">
        <ele>130</ele>
        <time>2015-02-14T09:55:12Z</time>
      </trkpt>
      <trkpt lat="48.40535" lon="2.6172">
        <ele>130</ele>
        <time>2015-02-14T09:55:23Z</time>
      </trkpt>
      <trkpt lat="48.40532" lon="2.61735">
        <ele>130</ele>
        <time>2015-02-14T09:55:30Z</time>
      </trkpt>
      <trkpt lat="48.4052" lon="2.61788">
        <ele>132</ele>
        <time>2015-02-14T09:55:56Z</time>
      </trkpt>
      <trkpt lat="48.40513" lon="2.6183">
        <ele>131</ele>
        <time>2015-02-14T09:56:19Z</time>
      </trkpt>
      <trkpt lat="48.40508" lon="2.61856">
        <ele>132</ele>
        <time>2015-02-14T09:56:31Z</time>
      </trkpt>
      <trkpt lat="48.40504" lon="2.6187">
        <ele>132</ele>
        <time>2015-02-14T09:56:37Z</time>
      </trkpt>
      <trkpt lat="48.40489" lon="2.61938">
        <ele>132</ele>
        <time>2015-02-14T09:57:08Z</time>
      </trkpt>
      <trkpt lat="48.40477" lon="2.62005">
        <ele>134</ele>
        <time>2015-02-14T09:57:38Z</time>
      </trkpt>
      <trkpt lat="48.40473" lon="2.62033">
        <ele>135</ele>
        <time>2015-02-14T09:57:52Z</time>
      </trkpt>
      <trkpt lat="48.40478" lon="2.62062">
        <ele>134</ele>
        <time>2015-02-14T09:58:06Z</time>
      </trkpt>
      <trkpt lat="48.40477" lon="2.62076">
        <ele>135</ele>
        <time>2015-02-14T09:58:12Z</time>
      </trkpt>
      <trkpt lat="48.40484" lon="2.62104">
        <ele>134</ele>
        <time>2015-02-14T09:58:24Z</time>
      </trkpt>
      <trkpt lat="48.40482" lon="2.62121">
        <ele>134</ele>
        <time>2015-02-14T09:58:33Z</time>
      </trkpt>
      <trkpt lat="48.40484" lon="2.62127">
        <ele>133</ele>
        <time>2015-02-14T09:58:36Z</time>
      </trkpt>
      <trkpt lat="48.40482" lon="2.62144">
        <ele>133</ele>
        <time>2015-02-14T09:58:45Z</time>
      </trkpt>
      <trkpt lat="48.40486" lon="2.62157">
        <ele>131</ele>
        <time>2015-02-14T09:58:51Z</time>
      </trkpt>
      <trkpt lat="48.40485" lon="2.62166">
        <ele>130</ele>
        <time>2015-02-14T09:58:55Z</time>
      </trkpt>
      <trkpt lat="48.40486" lon="2.62181">
        <ele>131</ele>
        <time>2015-02-14T09:59:02Z</time>
      </trkpt>
      <trkpt lat="48.40485" lon="2.62196">
        <ele>131</ele>
        <time>2015-02-14T09:59:08Z</time>
      </trkpt>
      <trkpt lat="48.40489" lon="2.62209">
        <ele>132</ele>
        <time>2015-02-14T09:59:14Z</time>
      </trkpt>
      <trkpt lat="48.40489" lon="2.62231">
        <ele>131</ele>
        <time>2015-02-14T09:59:24Z</time>
      </trkpt>
      <trkpt lat="48.40495" lon="2.62245">
        <ele>131</ele>
        <time>2015-02-14T09:59:30Z</time>
      </trkpt>
      <trkpt lat="48.40499" lon="2.62281">
        <ele>129</ele>
        <time>2015-02-14T09:59:44Z</time>
      </trkpt>
      <trkpt lat="48.40498" lon="2.62288">
        <ele>129</ele>
        <time>2015-02-14T09:59:47Z</time>
      </trkpt>
      <trkpt lat="48.40496" lon="2.62295">
        <ele>129</ele>
        <time>2015-02-14T09:59:50Z</time>
      </trkpt>
      <trkpt lat="48.40496" lon="2.623">
        <ele>128</ele>
        <time>2015-02-14T09:59:52Z</time>
      </trkpt>
      <trkpt lat="48.40496" lon="2.62308">
        <ele>128</ele>
        <time>2015-02-14T09:59:55Z</time>
      </trkpt>
      <trkpt lat="48.40499" lon="2.62329">
        <ele>128</ele>
        <time>2015-02-14T10:00:05Z</time>
      </trkpt>
      <trkpt lat="48.40495" lon="2.62342">
        <ele>127</ele>
        <time>2015-02-14T10:00:12Z</time>
      </trkpt>
      <trkpt lat="48.40495" lon="2.62355">
        <ele>126</ele>
        <time>2015-02-14T10:00:17Z</time>
      </trkpt>
      <trkpt lat="48.40502" lon="2.62374">
        <ele>125</ele>
        <time>2015-02-14T10:00:24Z</time>
      </trkpt>
      <trkpt lat="48.40514" lon="2.62396">
        <ele>124</ele>
        <time>2015-02-14T10:00:33Z</time>
      </trkpt>
      <trkpt lat="48.40515" lon="2.62404">
        <ele>123</ele>
        <time>2015-02-14T10:00:36Z</time>
      </trkpt>
      <trkpt lat="48.40514" lon="2.62418">
        <ele>123</ele>
        <time>2015-02-14T10:00:40Z</time>
      </trkpt>
      <trkpt lat="48.40506" lon="2.62436">
        <ele>123</ele>
        <time>2015-02-14T10:00:49Z</time>
      </trkpt>
      <trkpt lat="48.40504" lon="2.62443">
        <ele>123</ele>
        <time>2015-02-14T10:00:53Z</time>
      </trkpt>
      <trkpt lat="48.405" lon="2.62456">
        <ele>123</ele>
        <time>2015-02-14T10:00:59Z</time>
      </trkpt>
      <trkpt lat="48.405" lon="2.62471">
        <ele>122</ele>
        <time>2015-02-14T10:01:04Z</time>
      </trkpt>
      <trkpt lat="48.40503" lon="2.62479">
        <ele>122</ele>
        <time>2015-02-14T10:01:07Z</time>
      </trkpt>
      <trkpt lat="48.40502" lon="2.62487">
        <ele>121</ele>
        <time>2015-02-14T10:01:10Z</time>
      </trkpt>
      <trkpt lat="48.405" lon="2.62494">
        <ele>121</ele>
        <time>2015-02-14T10:01:14Z</time>
      </trkpt>
      <trkpt lat="48.40498" lon="2.62502">
        <ele>122</ele>
        <time>2015-02-14T10:01:19Z</time>
      </trkpt>
      <trkpt lat="48.40505" lon="2.62511">
        <ele>121</ele>
        <time>2015-02-14T10:01:29Z</time>
      </trkpt>
      <trkpt lat="48.40507" lon="2.62513">
        <ele>121</ele>
        <time>2015-02-14T10:01:30Z</time>
      </trkpt>
      <trkpt lat="48.40512" lon="2.62514">
        <ele>121</ele>
        <time>2015-02-14T10:01:36Z</time>
      </trkpt>
      <trkpt lat="48.40516" lon="2.62519">
        <ele>120</ele>
        <time>2015-02-14T10:01:40Z</time>
      </trkpt>
      <trkpt lat="48.40527" lon="2.62521">
        <ele>118</ele>
        <time>2015-02-14T10:01:48Z</time>
      </trkpt>
      <trkpt lat="48.40535" lon="2.62528">
        <ele>117</ele>
        <time>2015-02-14T10:01:57Z</time>
      </trkpt>
      <trkpt lat="48.40555" lon="2.62541">
        <ele>117</ele>
        <time>2015-02-14T10:02:09Z</time>
      </trkpt>
      <trkpt lat="48.40555" lon="2.62546">
        <ele>117</ele>
        <time>2015-02-14T10:02:18Z</time>
      </trkpt>
      <trkpt lat="48.40549" lon="2.62571">
        <ele>116</ele>
        <time>2015-02-14T10:02:36Z</time>
      </trkpt>
      <trkpt lat="48.4055" lon="2.62585">
        <ele>116</ele>
        <time>2015-02-14T10:02:44Z</time>
      </trkpt>
      <trkpt lat="48.40544" lon="2.62596">
        <ele>116</ele>
        <time>2015-02-14T10:02:50Z</time>
      </trkpt>
      <trkpt lat="48.40548" lon="2.62609">
        <ele>116</ele>
        <time>2015-02-14T10:02:56Z</time>
      </trkpt>
      <trkpt lat="48.40546" lon="2.62646">
        <ele>118</ele>
        <time>2015-02-14T10:03:12Z</time>
      </trkpt>
      <trkpt lat="48.40549" lon="2.62655">
        <ele>118</ele>
        <time>2015-02-14T10:03:16Z</time>
      </trkpt>
      <trkpt lat="48.40546" lon="2.62678">
        <ele>117</ele>
        <time>2015-02-14T10:03:25Z</time>
      </trkpt>
      <trkpt lat="48.40533" lon="2.62702">
        <ele>118</ele>
        <time>2015-02-14T10:03:37Z</time>
      </trkpt>
      <trkpt lat="48.40534" lon="2.6272">
        <ele>119</ele>
        <time>2015-02-14T10:03:45Z</time>
      </trkpt>
      <trkpt lat="48.40528" lon="2.62744">
        <ele>117</ele>
        <time>2015-02-14T10:03:56Z</time>
      </trkpt>
      <trkpt lat="48.40528" lon="2.62801">
        <ele>118</ele>
        <time>2015-02-14T10:04:23Z</time>
      </trkpt>
      <trkpt lat="48.40514" lon="2.62855">
        <ele>120</ele>
        <time>2015-02-14T10:04:47Z</time>
      </trkpt>
      <trkpt lat="48.40514" lon="2.62883">
        <ele>119</ele>
        <time>2015-02-14T10:05:00Z</time>
      </trkpt>
      <trkpt lat="48.40518" lon="2.62895">
        <ele>120</ele>
        <time>2015-02-14T10:05:06Z</time>
      </trkpt>
      <trkpt lat="48.40516" lon="2.6291">
        <ele>120</ele>
        <time>2015-02-14T10:05:14Z</time>
      </trkpt>
      <trkpt lat="48.40513" lon="2.62924">
        <ele>121</ele>
        <time>2015-02-14T10:05:21Z</time>
      </trkpt>
      <trkpt lat="48.40513" lon="2.62988">
        <ele>122</ele>
        <time>2015-02-14T10:05:51Z</time>
      </trkpt>
      <trkpt lat="48.40513" lon="2.63011">
        <ele>123</ele>
        <time>2015-02-14T10:06:02Z</time>
      </trkpt>
      <trkpt lat="48.40512" lon="2.63019">
        <ele>123</ele>
        <time>2015-02-14T10:06:06Z</time>
      </trkpt>
      <trkpt lat="48.40513" lon="2.63027">
        <ele>123</ele>
        <time>2015-02-14T10:06:10Z</time>
      </trkpt>
      <trkpt lat="48.40513" lon="2.63051">
        <ele>124</ele>
        <time>2015-02-14T10:06:24Z</time>
      </trkpt>
      <trkpt lat="48.40513" lon="2.63059">
        <ele>124</ele>
        <time>2015-02-14T10:06:28Z</time>
      </trkpt>
      <trkpt lat="48.4051" lon="2.63064">
        <ele>123</ele>
        <time>2015-02-14T10:06:32Z</time>
      </trkpt>
      <trkpt lat="48.40506" lon="2.63068">
        <ele>124</ele>
        <time>2015-02-14T10:06:36Z</time>
      </trkpt>
      <trkpt lat="48.40504" lon="2.63076">
        <ele>124</ele>
        <time>2015-02-14T10:06:40Z</time>
      </trkpt>
      <trkpt lat="48.40502" lon="2.63083">
        <ele>124</ele>
        <time>2015-02-14T10:06:43Z</time>
      </trkpt>
      <trkpt lat="48.40503" lon="2.63106">
        <ele>124</ele>
        <time>2015-02-14T10:06:55Z</time>
      </trkpt>
      <trkpt lat="48.40501" lon="2.63114">
        <ele>124</ele>
        <time>2015-02-14T10:06:59Z</time>
      </trkpt>
      <trkpt lat="48.40502" lon="2.63132">
        <ele>124</ele>
        <time>2015-02-14T10:07:07Z</time>
      </trkpt>
      <trkpt lat="48.40502" lon="2.6314">
        <ele>124</ele>
        <time>2015-02-14T10:07:11Z</time>
      </trkpt>
      <trkpt lat="48.40508" lon="2.63185">
        <ele>128</ele>
        <time>2015-02-14T10:07:33Z</time>
      </trkpt>
      <trkpt lat="48.40503" lon="2.63203">
        <ele>128</ele>
        <time>2015-02-14T10:07:42Z</time>
      </trkpt>
      <trkpt lat="48.40501" lon="2.63235">
        <ele>126</ele>
        <time>2015-02-14T10:07:58Z</time>
      </trkpt>
      <trkpt lat="48.40499" lon="2.6325">
        <ele>126</ele>
        <time>2015-02-14T10:08:04Z</time>
      </trkpt>
      <trkpt lat="48.40499" lon="2.63257">
        <ele>126</ele>
        <time>2015-02-14T10:08:08Z</time>
      </trkpt>
      <trkpt lat="48.40492" lon="2.63289">
        <ele>128</ele>
        <time>2015-02-14T10:08:30Z</time>
      </trkpt>
      <trkpt lat="48.40488" lon="2.63304">
        <ele>128</ele>
        <time>2015-02-14T10:08:36Z</time>
      </trkpt>
      <trkpt lat="48.40487" lon="2.63315">
        <ele>127</ele>
        <time>2015-02-14T10:08:42Z</time>
      </trkpt>
      <trkpt lat="48.40485" lon="2.63321">
        <ele>126</ele>
        <time>2015-02-14T10:08:46Z</time>
      </trkpt>
      <trkpt lat="48.40484" lon="2.63333">
        <ele>127</ele>
        <time>2015-02-14T10:08:51Z</time>
      </trkpt>
      <trkpt lat="48.40484" lon="2.63342">
        <ele>128</ele>
        <time>2015-02-14T10:08:55Z</time>
      </trkpt>
      <trkpt lat="48.40474" lon="2.63403">
        <ele>130</ele>
        <time>2015-02-14T10:09:23Z</time>
      </trkpt>
      <trkpt lat="48.40472" lon="2.6341">
        <ele>130</ele>
        <time>2015-02-14T10:09:26Z</time>
      </trkpt>
      <trkpt lat="48.40473" lon="2.63442">
        <ele>129</ele>
        <time>2015-02-14T10:09:39Z</time>
      </trkpt>
      <trkpt lat="48.40477" lon="2.63448">
        <ele>129</ele>
        <time>2015-02-14T10:09:42Z</time>
      </trkpt>
      <trkpt lat="48.40492" lon="2.63468">
        <ele>129</ele>
        <time>2015-02-14T10:09:53Z</time>
      </trkpt>
      <trkpt lat="48.40509" lon="2.63494">
        <ele>130</ele>
        <time>2015-02-14T10:10:04Z</time>
      </trkpt>
      <trkpt lat="48.40511" lon="2.63501">
        <ele>130</ele>
        <time>2015-02-14T10:10:07Z</time>
      </trkpt>
      <trkpt lat="48.40508" lon="2.63505">
        <ele>130</ele>
        <time>2015-02-14T10:10:21Z</time>
      </trkpt>
      <trkpt lat="48.40512" lon="2.6351">
        <ele>130</ele>
        <time>2015-02-14T10:10:25Z</time>
      </trkpt>
      <trkpt lat="48.40544" lon="2.63532">
        <ele>130</ele>
        <time>2015-02-14T10:10:53Z</time>
      </trkpt>
      <trkpt lat="48.40546" lon="2.63538">
        <ele>130</ele>
        <time>2015-02-14T10:10:57Z</time>
      </trkpt>
      <trkpt lat="48.40547" lon="2.63552">
        <ele>130</ele>
        <time>2015-02-14T10:11:05Z</time>
      </trkpt>
      <trkpt lat="48.40551" lon="2.63555">
        <ele>130</ele>
        <time>2015-02-14T10:11:07Z</time>
      </trkpt>
      <trkpt lat="48.40557" lon="2.63558">
        <ele>130</ele>
        <time>2015-02-14T10:11:11Z</time>
      </trkpt>
      <trkpt lat="48.40569" lon="2.63572">
        <ele>130</ele>
        <time>2015-02-14T10:11:19Z</time>
      </trkpt>
      <trkpt lat="48.40571" lon="2.63577">
        <ele>130</ele>
        <time>2015-02-14T10:11:24Z</time>
      </trkpt>
      <trkpt lat="48.40592" lon="2.63596">
        <ele>131</ele>
        <time>2015-02-14T10:11:39Z</time>
      </trkpt>
      <trkpt lat="48.40596" lon="2.63603">
        <ele>130</ele>
        <time>2015-02-14T10:11:45Z</time>
      </trkpt>
      <trkpt lat="48.40629" lon="2.63619">
        <ele>130</ele>
        <time>2015-02-14T10:12:06Z</time>
      </trkpt>
      <trkpt lat="48.40638" lon="2.63618">
        <ele>129</ele>
        <time>2015-02-14T10:12:12Z</time>
      </trkpt>
      <trkpt lat="48.40642" lon="2.63619">
        <ele>129</ele>
        <time>2015-02-14T10:12:14Z</time>
      </trkpt>
      <trkpt lat="48.4065" lon="2.63616">
        <ele>129</ele>
        <time>2015-02-14T10:12:22Z</time>
      </trkpt>
      <trkpt lat="48.40654" lon="2.63617">
        <ele>129</ele>
        <time>2015-02-14T10:12:31Z</time>
      </trkpt>
      <trkpt lat="48.40658" lon="2.63618">
        <ele>129</ele>
        <time>2015-02-14T10:12:35Z</time>
      </trkpt>
      <trkpt lat="48.40705" lon="2.63615">
        <ele>131</ele>
        <time>2015-02-14T10:13:09Z</time>
      </trkpt>
      <trkpt lat="48.40721" lon="2.63609">
        <ele>131</ele>
        <time>2015-02-14T10:13:17Z</time>
      </trkpt>
      <trkpt lat="48.4073" lon="2.636">
        <ele>131</ele>
        <time>2015-02-14T10:13:24Z</time>
      </trkpt>
      <trkpt lat="48.40751" lon="2.636">
        <ele>131</ele>
        <time>2015-02-14T10:13:40Z</time>
      </trkpt>
      <trkpt lat="48.40761" lon="2.63606">
        <ele>131</ele>
        <time>2015-02-14T10:13:50Z</time>
      </trkpt>
      <trkpt lat="48.4077" lon="2.63615">
        <ele>131</ele>
        <time>2015-02-14T10:13:56Z</time>
      </trkpt>
      <trkpt lat="48.40773" lon="2.63621">
        <ele>130</ele>
        <time>2015-02-14T10:14:02Z</time>
      </trkpt>
      <trkpt lat="48.40777" lon="2.63623">
        <ele>130</ele>
        <time>2015-02-14T10:14:05Z</time>
      </trkpt>
      <trkpt lat="48.40788" lon="2.63627">
        <ele>130</ele>
        <time>2015-02-14T10:14:14Z</time>
      </trkpt>
      <trkpt lat="48.40803" lon="2.6363">
        <ele>130</ele>
        <time>2015-02-14T10:14:22Z</time>
      </trkpt>
      <trkpt lat="48.40824" lon="2.63643">
        <ele>130</ele>
        <time>2015-02-14T10:14:45Z</time>
      </trkpt>
      <trkpt lat="48.40834" lon="2.63644">
        <ele>131</ele>
        <time>2015-02-14T10:14:51Z</time>
      </trkpt>
      <trkpt lat="48.40838" lon="2.63643">
        <ele>131</ele>
        <time>2015-02-14T10:14:58Z</time>
      </trkpt>
      <trkpt lat="48.40838" lon="2.63634">
        <ele>131</ele>
        <time>2015-02-14T10:15:02Z</time>
      </trkpt>
      <trkpt lat="48.4084" lon="2.63612">
        <ele>131</ele>
        <time>2015-02-14T10:15:14Z</time>
      </trkpt>
      <trkpt lat="48.40843" lon="2.63605">
        <ele>131</ele>
        <time>2015-02-14T10:15:18Z</time>
      </trkpt>
      <trkpt lat="48.40856" lon="2.63591">
        <ele>132</ele>
        <time>2015-02-14T10:15:27Z</time>
      </trkpt>
      <trkpt lat="48.40858" lon="2.63584">
        <ele>133</ele>
        <time>2015-02-14T10:15:30Z</time>
      </trkpt>
      <trkpt lat="48.40857" lon="2.63567">
        <ele>133</ele>
        <time>2015-02-14T10:15:38Z</time>
      </trkpt>
      <trkpt lat="48.40857" lon="2.6356">
        <ele>132</ele>
        <time>2015-02-14T10:15:41Z</time>
      </trkpt>
      <trkpt lat="48.40859" lon="2.63553">
        <ele>132</ele>
        <time>2015-02-14T10:15:45Z</time>
      </trkpt>
      <trkpt lat="48.40864" lon="2.63537">
        <ele>132</ele>
        <time>2015-02-14T10:15:53Z</time>
      </trkpt>
      <trkpt lat="48.40867" lon="2.63531">
        <ele>132</ele>
        <time>2015-02-14T10:15:57Z</time>
      </trkpt>
      <trkpt lat="48.40868" lon="2.63523">
        <ele>132</ele>
        <time>2015-02-14T10:16:01Z</time>
      </trkpt>
      <trkpt lat="48.40868" lon="2.63514">
        <ele>132</ele>
        <time>2015-02-14T10:16:05Z</time>
      </trkpt>
      <trkpt lat="48.40867" lon="2.63504">
        <ele>133</ele>
        <time>2015-02-14T10:16:08Z</time>
      </trkpt>
      <trkpt lat="48.4087" lon="2.63489">
        <ele>133</ele>
        <time>2015-02-14T10:16:17Z</time>
      </trkpt>
      <trkpt lat="48.40875" lon="2.63486">
        <ele>133</ele>
        <time>2015-02-14T10:16:22Z</time>
      </trkpt>
      <trkpt lat="48.40887" lon="2.63484">
        <ele>134</ele>
        <time>2015-02-14T10:16:34Z</time>
      </trkpt>
      <trkpt lat="48.40885" lon="2.63481">
        <ele>134</ele>
        <time>2015-02-14T10:16:51Z</time>
      </trkpt>
    </trkseg>
  </trk>
</gpx>